createdAt,value
2023-11-15T00:02:49.420Z,4.47
2023-11-15T00:05:51.340Z,4.28
2023-11-15T00:08:53.631Z,5.57
2023-11-15T00:11:55.325Z,5.15
2023-11-15T00:14:57.201Z,5.43
2023-11-15T00:18:01.792Z,6.20
2023-11-15T00:21:05.025Z,4.97
2023-11-15T00:24:07.135Z,5.85
2023-11-15T00:27:09.589Z,5.93
2023-11-15T00:30:12.501Z,6.72
2023-11-15T00:33:14.247Z,6.90
2023-11-15T00:36:20.707Z,4.43
2023-11-15T00:39:23.132Z,5.78
2023-11-15T00:42:26.296Z,5.45
2023-11-15T00:45:27.928Z,8.05
2023-11-15T00:48:29.830Z,5.20
2023-11-15T00:51:31.485Z,4.07
2023-11-15T00:54:33.117Z,4.95
2023-11-15T00:57:35.850Z,5.30
2023-11-15T01:00:46.068Z,5.45
2023-11-15T01:03:57.319Z,4.57
2023-11-15T01:06:59.809Z,5.45
2023-11-15T01:10:01.495Z,5.80
2023-11-15T01:13:04.589Z,6.63
2023-11-15T01:16:06.529Z,5.00
2023-11-15T01:19:08.288Z,6.90
2023-11-15T01:22:09.955Z,4.88
2023-11-15T01:25:13.691Z,5.03
2023-11-15T01:28:15.377Z,4.85
2023-11-15T01:31:17.137Z,4.72
2023-11-15T01:34:20.449Z,8.33
2023-11-15T01:37:22.147Z,4.70
2023-11-15T01:40:24.858Z,5.05
2023-11-15T01:43:26.481Z,5.18
2023-11-15T01:46:28.403Z,5.70
2023-11-15T01:49:30.134Z,5.10
2023-11-15T01:52:32.953Z,5.32
2023-11-15T01:55:35.891Z,5.20
2023-11-15T01:58:38.580Z,5.50
2023-11-15T02:01:41.811Z,6.18
2023-11-15T02:04:43.575Z,9.70
2023-11-15T02:07:46.428Z,14.23
2023-11-15T02:10:48.371Z,10.10
2023-11-15T02:13:50.006Z,7.57
2023-11-15T02:16:53.210Z,7.43
2023-11-15T02:19:54.943Z,8.07
2023-11-15T02:22:57.718Z,5.50
2023-11-15T02:25:59.427Z,5.70
2023-11-15T02:29:01.288Z,5.63
2023-11-15T02:32:03.180Z,6.25
2023-11-15T02:35:05.506Z,6.23
2023-11-15T02:38:07.206Z,6.40
2023-11-15T02:41:09.425Z,6.97
2023-11-15T02:44:11.584Z,7.50
2023-11-15T02:47:13.193Z,8.52
2023-11-15T02:50:16.015Z,6.77
2023-11-15T02:53:18.803Z,8.90
2023-11-15T02:56:20.437Z,8.98
2023-11-15T02:59:22.092Z,10.38
2023-11-15T03:02:23.850Z,9.40
2023-11-15T03:05:28.891Z,7.63
2023-11-15T03:08:34.473Z,8.23
2023-11-15T03:11:37.085Z,6.28
2023-11-15T03:14:38.775Z,5.95
2023-11-15T03:17:41.649Z,7.13
2023-11-15T03:20:43.592Z,7.30
2023-11-15T03:23:45.891Z,5.78
2023-11-15T03:26:47.654Z,6.78
2023-11-15T03:29:49.642Z,7.18
2023-11-15T03:32:51.741Z,7.70
2023-11-15T03:35:53.521Z,7.47
2023-11-15T03:38:55.672Z,6.93
2023-11-15T03:41:58.296Z,5.35
2023-11-15T03:45:00.588Z,7.03
2023-11-15T03:48:04.088Z,5.95
2023-11-15T03:51:06.168Z,2.77
2023-11-15T03:54:07.950Z,3.00
2023-11-15T03:57:11.880Z,2.60
2023-11-15T04:00:15.318Z,1.92
2023-11-15T04:03:20.611Z,1.55
2023-11-15T04:06:23.605Z,2.10
2023-11-15T04:09:25.253Z,1.40
2023-11-15T04:12:26.917Z,1.83
2023-11-15T04:15:29.790Z,1.65
2023-11-15T04:18:34.456Z,1.30
2023-11-15T04:21:36.066Z,2.13
2023-11-15T04:24:40.053Z,1.85
2023-11-15T04:27:41.786Z,4.55
2023-11-15T04:30:44.354Z,1.33
2023-11-15T04:33:47.103Z,2.30
2023-11-15T04:36:49.387Z,1.50
2023-11-15T04:39:51.131Z,2.03
2023-11-15T04:42:52.746Z,3.53
2023-11-15T04:45:54.965Z,2.83
2023-11-15T04:48:56.614Z,2.97
2023-11-15T04:51:58.425Z,3.17
2023-11-15T04:55:00.033Z,3.00
2023-11-15T04:58:02.121Z,2.28
2023-11-15T05:01:04.923Z,2.63
2023-11-15T05:04:06.997Z,2.05
2023-11-15T05:07:08.823Z,2.07
2023-11-15T05:10:11.133Z,1.98
2023-11-15T05:13:12.922Z,1.80
2023-11-15T05:16:14.691Z,2.63
2023-11-15T05:19:16.297Z,3.50
2023-11-15T05:22:17.995Z,3.43
2023-11-15T05:25:19.969Z,3.13
2023-11-15T05:28:21.981Z,2.97
2023-11-15T05:31:24.359Z,3.72
2023-11-15T05:34:27.713Z,2.78
2023-11-15T05:37:29.642Z,3.77
2023-11-15T05:40:31.326Z,2.67
2023-11-15T05:43:33.115Z,2.60
2023-11-15T05:46:37.612Z,1.52
2023-11-15T05:49:39.357Z,2.03
2023-11-15T05:52:41.014Z,3.83
2023-11-15T05:55:43.435Z,2.53
2023-11-15T05:58:47.160Z,1.95
2023-11-15T06:01:48.962Z,2.40
2023-11-15T06:04:50.791Z,1.70
2023-11-15T06:07:52.570Z,1.90
2023-11-15T06:10:54.567Z,1.80
2023-11-15T06:13:56.278Z,2.45
2023-11-15T06:16:58.095Z,1.58
2023-11-15T06:20:04.532Z,2.17
2023-11-15T06:23:08.757Z,3.73
2023-11-15T06:26:12.464Z,4.55
2023-11-15T06:29:14.181Z,1.27
2023-11-15T06:32:16.735Z,1.30
2023-11-15T06:35:22.194Z,1.40
2023-11-15T06:38:23.791Z,2.20
2023-11-15T06:41:25.428Z,1.38
2023-11-15T06:44:27.432Z,1.52
2023-11-15T06:47:30.235Z,2.42
2023-11-15T06:50:33.985Z,1.45
2023-11-15T06:53:35.621Z,4.07
2023-11-15T06:56:37.316Z,1.85
2023-11-15T06:59:39.065Z,2.22
2023-11-15T07:02:42.713Z,1.50
2023-11-15T07:05:49.961Z,2.20
2023-11-15T07:08:51.726Z,1.30
2023-11-15T07:11:53.595Z,2.08
2023-11-15T07:14:56.889Z,2.67
2023-11-15T07:17:59.245Z,1.35
2023-11-15T07:21:01.401Z,1.95
2023-11-15T07:24:04.004Z,0.70
2023-11-15T07:27:09.451Z,1.13
2023-11-15T07:30:13.431Z,0.73
2023-11-15T07:33:15.627Z,1.23
2023-11-15T07:36:17.583Z,1.15
2023-11-15T07:39:20.310Z,1.10
2023-11-15T07:42:22.238Z,0.95
2023-11-15T07:45:24.474Z,2.47
2023-11-15T07:48:27.077Z,0.50
2023-11-15T07:51:29.371Z,1.40
2023-11-15T07:54:30.997Z,0.70
2023-11-15T07:57:32.668Z,1.20
2023-11-15T08:00:36.756Z,0.90
2023-11-15T08:03:38.597Z,1.45
2023-11-15T08:06:41.017Z,1.10
2023-11-15T08:09:42.910Z,1.80
2023-11-15T08:12:45.724Z,2.25
2023-11-15T08:15:48.560Z,1.40
2023-11-15T08:18:53.219Z,2.05
2023-11-15T08:21:54.937Z,0.93
2023-11-15T08:24:56.590Z,1.80
2023-11-15T08:28:02.911Z,0.70
2023-11-15T08:31:06.054Z,1.02
2023-11-15T08:34:07.823Z,2.90
2023-11-15T08:37:09.614Z,1.90
2023-11-15T08:40:22.859Z,0.90
2023-11-15T08:43:30.176Z,1.55
2023-11-15T08:46:31.874Z,1.63
2023-11-15T08:49:33.538Z,1.05
2023-11-15T08:52:38.341Z,1.52
2023-11-15T08:55:41.959Z,1.93
2023-11-15T08:58:44.058Z,4.43
2023-11-15T09:01:46.473Z,3.50
2023-11-15T09:04:48.561Z,2.53
2023-11-15T09:07:50.340Z,2.50
2023-11-15T09:10:52.429Z,1.90
2023-11-15T09:13:56.124Z,2.38
2023-11-15T09:16:59.666Z,0.80
2023-11-15T09:20:02.656Z,1.67
2023-11-15T09:23:10.929Z,2.83
2023-11-15T09:26:20.406Z,1.60
2023-11-15T09:29:22.585Z,0.80
2023-11-15T09:32:26.474Z,0.75
2023-11-15T09:35:32.764Z,1.63
2023-11-15T09:38:34.791Z,1.52
2023-11-15T09:41:39.910Z,2.57
2023-11-15T09:44:45.457Z,1.05
2023-11-15T09:47:48.719Z,1.33
2023-11-15T09:50:52.533Z,1.40
2023-11-15T09:54:07.783Z,0.80
2023-11-15T09:57:14.463Z,1.43
2023-11-15T10:00:22.403Z,1.30
2023-11-15T10:03:25.143Z,1.02
2023-11-15T10:06:40.940Z,2.28
2023-11-15T10:09:44.297Z,2.85
2023-11-15T10:12:47.581Z,2.47
2023-11-15T10:15:49.893Z,0.95
2023-11-15T10:18:52.943Z,1.85
2023-11-15T10:22:06.199Z,0.98
2023-11-15T10:25:08.769Z,1.58
2023-11-15T10:28:15.563Z,0.70
2023-11-15T10:31:19.724Z,0.70
2023-11-15T10:34:27.351Z,0.95
2023-11-15T10:37:29.809Z,1.27
2023-11-15T10:40:32.145Z,0.85
2023-11-15T10:43:34.322Z,0.87
2023-11-15T10:46:40.251Z,1.27
2023-11-15T10:49:44.914Z,1.30
2023-11-15T10:52:48.044Z,1.08
2023-11-15T10:55:50.367Z,1.30
2023-11-15T10:58:54.021Z,1.73
2023-11-15T11:01:57.768Z,1.50
2023-11-15T11:05:00.712Z,1.10
2023-11-15T11:08:38.244Z,2.53
2023-11-15T11:11:55.322Z,0.98
2023-11-15T11:15:20.108Z,0.93
2023-11-15T11:18:23.390Z,1.88
2023-11-15T11:21:27.171Z,1.40
2023-11-15T11:24:36.144Z,1.83
2023-11-15T11:27:38.773Z,2.45
2023-11-15T11:30:41.732Z,1.97
2023-11-15T11:34:10.926Z,0.93
2023-11-15T11:37:12.691Z,1.77
2023-11-15T11:40:14.868Z,0.73
2023-11-15T11:43:31.046Z,0.88
2023-11-15T11:46:32.653Z,1.87
2023-11-15T11:49:48.052Z,3.20
2023-11-15T11:52:57.040Z,2.10
2023-11-15T11:55:58.837Z,1.20
2023-11-15T11:59:13.230Z,2.35
2023-11-15T12:02:15.202Z,1.63
2023-11-15T12:05:26.876Z,1.55
2023-11-15T12:08:29.341Z,2.35
2023-11-15T12:11:30.972Z,1.85
2023-11-15T12:14:33.745Z,2.92
2023-11-15T12:17:43.028Z,0.73
2023-11-15T12:20:48.544Z,1.52
2023-11-15T12:23:50.262Z,1.80
2023-11-15T12:26:52.132Z,2.10
2023-11-15T12:29:54.200Z,5.22
2023-11-15T12:33:01.609Z,5.43
2023-11-15T12:36:07.672Z,3.75
2023-11-15T12:39:09.566Z,5.57
2023-11-15T12:42:11.553Z,4.43
2023-11-15T12:45:33.049Z,3.35
2023-11-15T12:48:41.754Z,3.57
2023-11-15T12:51:47.953Z,4.10
2023-11-15T12:54:56.601Z,2.78
2023-11-15T12:57:58.239Z,2.22
2023-11-15T13:01:03.426Z,1.65
2023-11-15T13:04:05.709Z,3.60
2023-11-15T13:07:10.842Z,2.05
2023-11-15T13:10:12.473Z,3.85
2023-11-15T13:13:14.163Z,0.98
2023-11-15T13:16:21.427Z,1.10
2023-11-15T13:19:23.473Z,3.30
2023-11-15T13:22:25.303Z,1.95
2023-11-15T13:25:26.950Z,2.40
2023-11-15T13:28:28.601Z,2.45
2023-11-15T13:31:30.233Z,2.80
2023-11-15T13:34:32.531Z,3.87
2023-11-15T13:37:34.451Z,1.45
2023-11-15T13:40:36.101Z,1.38
2023-11-15T13:43:39.281Z,1.85
2023-11-15T13:46:40.924Z,3.17
2023-11-15T13:49:46.417Z,2.17
2023-11-15T13:52:48.217Z,1.88
2023-11-15T13:55:50.706Z,2.35
2023-11-15T13:58:52.400Z,2.45
2023-11-15T14:01:54.825Z,2.92
2023-11-15T14:04:56.484Z,2.80
2023-11-15T14:07:58.267Z,1.77
2023-11-15T14:11:05.140Z,1.77
2023-11-15T14:14:07.897Z,3.15
2023-11-15T14:17:11.285Z,3.17
2023-11-15T14:20:13.165Z,3.27
2023-11-15T14:23:16.154Z,1.73
2023-11-15T14:26:17.771Z,2.17
2023-11-15T14:29:21.252Z,1.70
2023-11-15T14:32:24.042Z,2.10
2023-11-15T14:35:29.665Z,2.20
2023-11-15T14:38:33.838Z,6.30
2023-11-15T14:41:35.569Z,2.90
2023-11-15T14:44:37.224Z,2.95
2023-11-15T14:47:44.403Z,3.17
2023-11-15T14:50:47.087Z,2.60
2023-11-15T14:53:56.846Z,4.35
2023-11-15T14:56:59.593Z,1.80
2023-11-15T15:00:01.302Z,2.75
2023-11-15T15:03:04.089Z,3.08
2023-11-15T15:06:07.238Z,3.23
2023-11-15T15:09:10.240Z,3.47
2023-11-15T15:12:12.054Z,2.78
2023-11-15T15:15:17.422Z,3.53
2023-11-15T15:18:25.775Z,2.50
2023-11-15T15:21:31.668Z,2.37
2023-11-15T15:24:34.368Z,5.18
2023-11-15T15:27:36.488Z,2.70
2023-11-15T15:30:38.504Z,3.38
2023-11-15T15:33:40.133Z,3.40
2023-11-15T15:36:41.894Z,3.77
2023-11-15T15:39:43.635Z,2.10
2023-11-15T15:42:46.420Z,5.50
2023-11-15T15:45:48.226Z,4.20
2023-11-15T15:48:52.119Z,3.70
2023-11-15T15:51:54.950Z,2.67
2023-11-15T15:54:57.126Z,3.10
2023-11-15T15:57:58.746Z,4.47
2023-11-15T16:01:00.428Z,4.82
2023-11-15T16:04:02.317Z,3.10
2023-11-15T16:07:05.402Z,4.03
2023-11-15T16:10:07.698Z,6.13
2023-11-15T16:13:10.745Z,5.00
2023-11-15T16:16:13.027Z,6.05
2023-11-15T16:19:15.066Z,3.38
2023-11-15T16:22:16.679Z,3.37
2023-11-15T16:25:19.683Z,3.20
2023-11-15T16:28:22.151Z,2.53
2023-11-15T16:31:23.963Z,2.50
2023-11-15T16:34:25.794Z,2.78
2023-11-15T16:37:27.550Z,1.80
2023-11-15T16:40:29.685Z,3.00
2023-11-15T16:43:32.967Z,2.63
2023-11-15T16:46:35.706Z,2.58
2023-11-15T16:49:37.314Z,2.53
2023-11-15T16:52:39.008Z,2.83
2023-11-15T16:55:41.672Z,3.50
2023-11-15T16:58:43.254Z,2.00
2023-11-15T17:01:45.156Z,3.28
2023-11-15T17:04:47.066Z,3.63
2023-11-15T17:07:48.916Z,3.47
2023-11-15T17:10:50.879Z,3.28
2023-11-15T17:13:55.502Z,3.00
2023-11-15T17:16:58.102Z,5.38
2023-11-15T17:20:00.853Z,3.90
2023-11-15T17:23:03.804Z,2.63
2023-11-15T17:26:05.932Z,3.70
2023-11-15T17:29:07.728Z,3.20
2023-11-15T17:32:09.989Z,3.85
2023-11-15T17:35:12.161Z,3.50
2023-11-15T17:38:14.315Z,3.83
2023-11-15T17:41:16.412Z,2.75
2023-11-15T17:44:21.454Z,4.03
2023-11-15T17:47:25.528Z,3.83
2023-11-15T17:50:31.888Z,5.25
2023-11-15T17:53:33.628Z,3.63
2023-11-15T17:56:35.283Z,5.20
2023-11-15T17:59:39.916Z,5.15
2023-11-15T18:02:48.390Z,3.53
2023-11-15T18:05:50.141Z,5.25
2023-11-15T18:08:52.987Z,4.00
2023-11-15T18:11:55.071Z,3.85
2023-11-15T18:14:56.836Z,4.35
2023-11-15T18:18:01.493Z,3.72
2023-11-15T18:21:04.309Z,4.00
2023-11-15T18:24:07.034Z,4.83
2023-11-15T18:27:08.750Z,4.95
2023-11-15T18:30:14.919Z,3.85
2023-11-15T18:33:18.354Z,3.08
2023-11-15T18:36:20.551Z,3.50
2023-11-15T18:39:22.473Z,3.90
2023-11-15T18:42:24.270Z,3.63
2023-11-15T18:45:25.957Z,2.35
2023-11-15T18:48:27.685Z,4.50
2023-11-15T18:51:31.715Z,4.75
2023-11-15T18:54:33.527Z,4.43
2023-11-15T18:57:36.735Z,2.53
2023-11-15T19:00:38.449Z,4.63
2023-11-15T19:03:40.378Z,2.53
2023-11-15T19:06:42.161Z,3.50
2023-11-15T19:09:44.714Z,3.63
2023-11-15T19:12:49.754Z,2.83
2023-11-15T19:15:52.044Z,2.95
2023-11-15T19:18:54.499Z,3.13
2023-11-15T19:21:56.284Z,3.47
2023-11-15T19:24:59.735Z,2.40
2023-11-15T19:28:01.630Z,3.22
2023-11-15T19:31:04.005Z,4.00
2023-11-15T19:34:07.866Z,5.07
2023-11-15T19:37:11.428Z,4.60
2023-11-15T19:40:15.455Z,3.47
2023-11-15T19:43:17.161Z,4.05
2023-11-15T19:46:19.557Z,2.83
2023-11-15T19:49:21.337Z,4.88
2023-11-15T19:52:24.788Z,3.33
2023-11-15T19:55:29.037Z,3.33
2023-11-15T19:58:33.218Z,3.58
2023-11-15T20:01:36.156Z,4.57
2023-11-15T20:04:38.884Z,5.22
2023-11-15T20:07:41.016Z,5.00
2023-11-15T20:10:43.160Z,4.23
2023-11-15T20:13:45.956Z,3.42
2023-11-15T20:16:49.902Z,4.85
2023-11-15T20:19:52.647Z,4.70
2023-11-15T20:22:55.782Z,5.30
2023-11-15T20:25:59.015Z,4.67
2023-11-15T20:29:00.670Z,5.32
2023-11-15T20:32:02.566Z,4.55
2023-11-15T20:35:04.864Z,4.85
2023-11-15T20:38:07.364Z,4.50
2023-11-15T20:41:09.363Z,8.53
2023-11-15T20:44:11.300Z,7.80
2023-11-15T20:47:13.039Z,8.98
2023-11-15T20:50:14.856Z,6.13
2023-11-15T20:53:18.014Z,7.63
2023-11-15T20:56:19.693Z,4.17
2023-11-15T20:59:21.295Z,5.38
2023-11-15T21:02:23.233Z,4.25
2023-11-15T21:05:26.261Z,3.85
2023-11-15T21:08:27.990Z,4.68
2023-11-15T21:11:30.252Z,5.40
2023-11-15T21:14:32.143Z,5.80
2023-11-15T21:17:34.103Z,3.15
2023-11-15T21:20:38.359Z,6.07
2023-11-15T21:23:43.383Z,3.58
2023-11-15T21:26:46.094Z,3.03
2023-11-15T21:29:47.718Z,4.72
2023-11-15T21:32:51.568Z,3.53
2023-11-15T21:35:53.355Z,4.63
2023-11-15T21:38:55.079Z,3.95
2023-11-15T21:41:56.753Z,2.90
2023-11-15T21:44:58.594Z,4.18
2023-11-15T21:48:00.957Z,4.40
2023-11-15T21:51:02.842Z,4.60
2023-11-15T21:54:05.003Z,4.50
2023-11-15T21:57:08.539Z,6.03
2023-11-15T22:00:15.843Z,4.28
2023-11-15T22:03:17.612Z,4.28
2023-11-15T22:06:19.368Z,5.40
2023-11-15T22:09:21.354Z,4.85
2023-11-15T22:12:23.033Z,3.87
2023-11-15T22:15:24.751Z,3.95
2023-11-15T22:18:29.581Z,6.68
2023-11-15T22:21:31.452Z,3.85
2023-11-15T22:24:33.508Z,4.35
2023-11-15T22:27:35.346Z,3.93
2023-11-15T22:30:37.039Z,2.90
2023-11-15T22:33:38.763Z,4.05
2023-11-15T22:36:40.423Z,3.78
2023-11-15T22:39:42.136Z,3.80
2023-11-15T22:42:48.261Z,5.20
2023-11-15T22:45:50.082Z,2.97
2023-11-15T22:48:52.528Z,3.10
2023-11-15T22:51:54.187Z,3.60
2023-11-15T22:54:55.976Z,3.67
2023-11-15T22:57:57.628Z,4.80
2023-11-15T23:00:59.528Z,3.17
2023-11-15T23:04:01.380Z,2.67
2023-11-15T23:07:05.929Z,4.20
2023-11-15T23:10:07.949Z,2.38
2023-11-15T23:13:09.610Z,3.27
2023-11-15T23:16:12.601Z,3.05
2023-11-15T23:19:14.362Z,3.00
2023-11-15T23:22:16.170Z,3.67
2023-11-15T23:25:17.841Z,4.68
2023-11-15T23:28:20.256Z,3.90
2023-11-15T23:31:22.310Z,4.43
2023-11-15T23:34:24.028Z,3.03
2023-11-15T23:37:25.685Z,2.83
2023-11-15T23:40:28.596Z,2.60
2023-11-15T23:43:30.266Z,2.87
2023-11-15T23:46:32.020Z,3.08
2023-11-15T23:49:33.814Z,3.58
2023-11-15T23:52:35.489Z,3.92
2023-11-15T23:55:37.140Z,3.33
2023-11-15T23:58:38.861Z,3.03
